Time;durP1;ratioP1;P1;durP2;ratioP2;P2;SDS_P1;SDS_P2;PMS_P1;PMS_P2;Temp;Humidity;BMP_temperature;BMP_pressure;BME280_temperature;BME280_humidity;BME280_pressure;Samples;Min_cycle;Max_cycle;Signal;HPM_P1;HPM_P2
2022/04/18 00:01:09;;;;;;;2.63;1.90;;;;;;;8.33;nan;99722.75;4977338;28;20211;-75
2022/04/18 00:03:35;;;;;;;1.93;1.80;;;;;;;8.48;nan;99725.50;4979873;28;20195;-74
2022/04/18 00:06:02;;;;;;;2.07;1.87;;;;;;;8.67;nan;99726.25;4978503;28;20728;-74
2022/04/18 00:08:27;;;;;;;2.65;1.98;;;;;;;8.87;nan;99712.06;4979202;28;20199;-75
2022/04/18 00:10:52;;;;;;;3.07;2.20;;;;;;;9.07;nan;99717.03;4980516;28;20580;-75
2022/04/18 00:13:18;;;;;;;3.03;2.23;;;;;;;9.24;nan;99715.25;4980928;28;20247;-76
2022/04/18 00:15:43;;;;;;;2.67;2.07;;;;;;;9.34;nan;99711.16;4976867;28;20442;-76
2022/04/18 00:18:08;;;;;;;2.03;1.60;;;;;;;9.41;nan;99694.16;4979773;28;20322;-76
2022/04/18 00:20:34;;;;;;;2.10;1.63;;;;;;;9.45;nan;99702.69;4983163;28;20224;-75
2022/04/18 00:22:59;;;;;;;3.00;2.17;;;;;;;9.47;nan;99701.66;4980625;28;20712;-75
2022/04/18 00:25:25;;;;;;;3.10;2.90;;;;;;;9.45;nan;99698.31;4979184;28;20572;-76
2022/04/18 00:27:53;;;;;;;3.83;2.10;;;;;;;9.40;nan;99696.88;4978505;28;20672;-72
2022/04/18 00:30:18;;;;;;;3.05;1.85;;;;;;;9.35;nan;99683.19;4965783;28;20206;-76
2022/04/18 00:32:44;;;;;;;2.50;2.30;;;;;;;9.34;nan;99697.22;4980934;28;21361;-76
2022/04/18 00:35:09;;;;;;;1.90;1.53;;;;;;;9.31;nan;99696.44;4980092;28;20516;-75
2022/04/18 00:37:36;;;;;;;2.03;1.70;;;;;;;9.31;nan;99695.59;4980251;28;20216;-76
2022/04/18 00:40:03;;;;;;;1.88;1.73;;;;;;;9.29;nan;99692.25;4984541;28;20218;-75
2022/04/18 00:42:28;;;;;;;2.08;1.88;;;;;;;9.26;nan;99680.16;4946370;28;20199;-75
2022/04/18 00:44:54;;;;;;;2.70;1.63;;;;;;;9.27;nan;99678.38;4981162;28;20711;-75
2022/04/18 00:47:19;;;;;;;2.40;2.20;;;;;;;9.32;nan;99681.59;4978143;28;20256;-76
2022/04/18 00:49:45;;;;;;;3.07;2.43;;;;;;;9.32;nan;99676.34;4978769;28;20207;-75
2022/04/18 00:52:11;;;;;;;3.70;2.20;;;;;;;9.35;nan;99675.31;4978415;28;20262;-76
2022/04/18 00:54:37;;;;;;;2.60;2.08;;;;;;;9.33;nan;99675.41;4977898;28;20238;-75
2022/04/18 00:57:03;;;;;;;1.90;1.40;;;;;;;9.32;nan;99673.72;4976095;28;20222;-75
2022/04/18 00:59:31;;;;;;;4.82;1.60;;;;;;;9.35;nan;99660.44;4976750;28;20206;-75
2022/04/18 01:01:57;;;;;;;2.40;1.70;;;;;;;9.41;nan;99667.94;4975268;28;20614;-75
2022/04/18 01:04:23;;;;;;;2.30;1.60;;;;;;;9.46;nan;99662.44;4976327;28;20725;-76
2022/04/18 01:06:49;;;;;;;2.07;1.60;;;;;;;9.46;nan;99658.03;4977038;28;20986;-75
2022/04/18 01:09:15;;;;;;;1.80;1.70;;;;;;;9.43;nan;99652.13;4974331;28;20682;-75
2022/04/18 01:11:41;;;;;;;2.70;2.13;;;;;;;9.31;nan;99651.88;4974457;28;20455;-75
2022/04/18 01:14:16;;;;;;;1.75;1.65;;;;;;;9.13;nan;99645.09;4961791;28;20213;-75
2022/04/18 01:17:05;;;;;;;2.55;1.95;;;;;;;8.96;nan;99650.44;4974722;28;20215;-75
2022/04/18 01:19:39;;;;;;;1.60;1.50;;;;;;;8.82;nan;99652.06;4954499;28;20696;-75
2022/04/18 01:22:05;;;;;;;1.53;1.40;;;;;;;8.72;nan;99644.78;4976629;28;20212;-75
2022/04/18 01:30:18;;;;;;;3.35;1.75;;;;;;;8.43;nan;99654.25;4989640;28;20600;-75
2022/04/18 01:32:44;;;;;;;2.33;1.70;;;;;;;8.41;nan;99649.94;4960841;28;20261;-75
2022/04/18 01:35:10;;;;;;;2.23;1.57;;;;;;;8.40;nan;99656.13;4978222;28;20223;-75
2022/04/18 01:37:37;;;;;;;4.03;1.88;;;;;;;8.38;nan;99650.06;4974478;28;20932;-75
2022/04/18 01:40:05;;;;;;;2.30;1.70;;;;;;;8.30;nan;99651.41;4960770;28;20227;-72
2022/04/18 01:42:30;;;;;;;3.42;2.00;;;;;;;8.18;nan;99650.28;4961240;28;20224;-74
2022/04/18 01:44:57;;;;;;;2.67;1.80;;;;;;;8.05;nan;99655.34;4959830;28;20700;-74
2022/04/18 01:47:23;;;;;;;2.03;1.85;;;;;;;7.94;nan;99642.81;5004736;23;20239;-72
2022/04/18 01:49:48;;;;;;;3.67;2.30;;;;;;;7.85;nan;99640.66;4967936;28;20320;-75
2022/04/18 01:52:15;;;;;;;4.50;1.93;;;;;;;7.75;nan;99647.31;4972340;28;20207;-76
2022/04/18 01:54:41;;;;;;;2.08;1.88;;;;;;;7.65;nan;99641.69;4987374;28;20199;-73
2022/04/18 01:57:08;;;;;;;1.70;1.60;;;;;;;7.54;nan;99642.25;4980518;28;22147;-76
2022/04/18 01:59:34;;;;;;;1.70;1.60;;;;;;;7.51;nan;99641.56;4992001;28;20210;-76
2022/04/18 02:01:59;;;;;;;3.00;1.50;;;;;;;7.51;nan;99642.41;5000540;28;20494;-75
2022/04/18 02:04:25;;;;;;;2.10;1.70;;;;;;;7.53;nan;99644.94;5007614;28;20735;-76
2022/04/18 02:06:50;;;;;;;3.00;2.20;;;;;;;7.54;nan;99647.47;4985619;28;20234;-76
2022/04/18 02:09:16;;;;;;;2.20;1.57;;;;;;;7.57;nan;99646.47;4986342;28;20699;-73
2022/04/18 02:11:41;;;;;;;2.27;1.57;;;;;;;7.57;nan;99629.94;4989474;28;20622;-74
2022/04/18 02:14:07;;;;;;;2.47;2.03;;;;;;;7.53;nan;99637.09;4996968;28;20286;-76
2022/04/18 02:16:32;;;;;;;2.30;2.00;;;;;;;7.35;nan;99638.03;5003476;28;20358;-76
2022/04/18 02:19:00;;;;;;;2.65;1.70;;;;;;;7.02;nan;99642.22;5005376;28;20310;-74
2022/04/18 02:21:26;;;;;;;2.53;1.83;;;;;;;6.70;nan;99635.06;4989936;28;20502;-74
2022/04/18 02:23:51;;;;;;;1.60;1.50;;;;;;;6.39;nan;99641.72;4987526;28;20201;-76
2022/04/18 02:26:17;;;;;;;2.73;1.70;;;;;;;6.17;nan;99640.09;4988941;28;20238;-73
2022/04/18 02:28:45;;;;;;;3.58;1.90;;;;;;;6.04;nan;99646.75;4988692;28;20326;-76
2022/04/18 02:31:12;;;;;;;2.42;1.90;;;;;;;6.01;nan;99630.41;5002325;28;20372;-76
2022/04/18 02:33:38;;;;;;;2.03;1.80;;;;;;;5.96;nan;99641.03;5000769;28;20683;-73
2022/04/18 02:36:04;;;;;;;2.65;2.28;;;;;;;5.87;nan;99636.22;4996522;28;20600;-75
2022/04/18 02:38:29;;;;;;;2.90;1.83;;;;;;;5.71;nan;99625.59;4987294;28;20230;-74
2022/04/18 02:40:55;;;;;;;2.67;2.10;;;;;;;5.57;nan;99630.56;5000770;28;20872;-74
2022/04/18 02:43:22;;;;;;;2.15;1.95;;;;;;;5.46;nan;99625.81;5005094;28;20203;-76
2022/04/18 02:45:51;;;;;;;2.33;1.80;;;;;;;5.38;nan;99623.53;4992629;28;20319;-76
2022/04/18 02:48:19;;;;;;;2.53;2.25;;;;;;;5.31;nan;99620.31;4960031;28;20265;-74
2022/04/18 02:50:48;;;;;;;2.50;2.30;;;;;;;5.28;nan;99619.59;4974045;28;20204;-76
2022/04/18 02:53:15;;;;;;;2.08;1.92;;;;;;;5.18;nan;99613.91;4976251;28;20208;-76
2022/04/18 02:55:45;;;;;;;2.67;2.40;;;;;;;5.05;nan;99611.00;4972199;28;20224;-75
2022/04/18 02:58:11;;;;;;;2.33;1.80;;;;;;;4.92;nan;99612.41;4956808;28;20192;-76
2022/04/18 03:00:37;;;;;;;3.03;2.40;;;;;;;4.79;nan;99606.00;4960029;28;20303;-73
2022/04/18 03:03:02;;;;;;;2.70;2.30;;;;;;;4.77;nan;99603.44;4959823;28;20980;-75
2022/04/18 03:05:28;;;;;;;2.88;2.67;;;;;;;4.74;nan;99610.53;4956954;28;20651;-75
2022/04/18 03:07:54;;;;;;;2.73;1.73;;;;;;;4.72;nan;99612.34;4961410;28;20235;-73
2022/04/18 03:11:02;;;;;;;2.55;1.83;;;;;;;4.72;nan;99607.13;4975834;28;20200;-75
2022/04/18 03:13:07;;;;;;;2.75;1.90;;;;;;;4.70;nan;99601.13;4967635;28;20215;-74
2022/04/18 03:15:33;;;;;;;1.80;1.67;;;;;;;4.76;nan;99600.91;4958970;28;20219;-73
2022/04/18 03:17:58;;;;;;;2.70;2.50;;;;;;;4.82;nan;99595.47;4958697;28;20735;-75
2022/04/18 03:20:24;;;;;;;1.60;1.50;;;;;;;4.80;nan;99603.31;4975644;28;20196;-73
2022/04/18 03:22:49;;;;;;;2.37;1.80;;;;;;;4.70;nan;99601.13;4961348;28;20506;-75
2022/04/18 03:25:26;;;;;;;2.60;1.83;;;;;;;4.59;nan;99597.22;4961275;28;20208;-73
2022/04/18 03:27:52;;;;;;;2.87;2.07;;;;;;;4.52;nan;99600.13;4975964;28;20223;-75
2022/04/18 03:30:18;;;;;;;1.97;1.77;;;;;;;4.52;nan;99595.75;4959457;28;20211;-73
2022/04/18 03:32:46;;;;;;;4.07;3.78;;;;;;;4.43;nan;99599.59;4962775;28;20206;-73
2022/04/18 03:35:12;;;;;;;2.87;2.00;;;;;;;4.36;nan;99594.66;4961430;28;20212;-76
2022/04/18 03:40:22;;;;;;;2.97;2.03;;;;;;;4.08;nan;99597.44;4960149;28;20223;-76
2022/04/18 03:42:48;;;;;;;2.20;2.00;;;;;;;3.89;nan;99594.69;4961257;28;20295;-76
2022/04/18 03:45:15;;;;;;;2.25;1.75;;;;;;;3.81;nan;99594.09;4959613;28;20684;-73
2022/04/18 03:47:41;;;;;;;3.63;2.77;;;;;;;3.74;nan;99591.75;5006848;28;20241;-75
2022/04/18 03:50:07;;;;;;;3.88;2.08;;;;;;;3.70;nan;99599.69;5010743;28;20721;-73
2022/04/18 03:52:37;;;;;;;2.70;2.33;;;;;;;3.75;nan;99589.97;5010509;28;20198;-73
2022/04/18 03:55:03;;;;;;;2.80;2.58;;;;;;;3.77;nan;99596.81;5003578;28;21041;-75
2022/04/18 03:57:33;;;;;;;2.65;2.45;;;;;;;3.82;nan;99596.66;4987645;28;20659;-76
2022/04/18 04:00:06;;;;;;;3.85;2.22;;;;;;;3.90;nan;99593.78;5007535;28;20249;-74
2022/04/18 04:02:39;;;;;;;5.20;2.95;;;;;;;3.96;nan;99596.16;5009615;28;20214;-75
2022/04/18 04:05:05;;;;;;;2.60;2.40;;;;;;;3.88;nan;99601.63;5010958;28;20198;-74
2022/04/18 04:07:30;;;;;;;3.37;2.70;;;;;;;3.83;nan;99600.94;5008300;28;20834;-76
2022/04/18 04:10:10;;;;;;;4.80;3.30;;;;;;;3.81;nan;99596.72;4989398;28;20679;-74
2022/04/18 04:12:36;;;;;;;3.53;2.60;;;;;;;3.75;nan;99603.84;5006236;28;20206;-75
2022/04/18 04:15:21;;;;;;;4.88;2.40;;;;;;;3.77;nan;99604.63;5011891;28;20215;-74
2022/04/18 04:17:56;;;;;;;2.30;2.10;;;;;;;3.79;nan;99594.19;4990442;28;20813;-76
2022/04/18 04:20:23;;;;;;;4.88;2.42;;;;;;;3.80;nan;99598.47;4998045;28;20238;-76
2022/04/18 04:22:51;;;;;;;3.10;2.53;;;;;;;3.78;nan;99608.09;4996167;28;20191;-76
2022/04/18 04:25:34;;;;;;;2.55;2.35;;;;;;;3.77;nan;99601.16;5008624;28;20272;-75
2022/04/18 04:28:00;;;;;;;3.60;2.77;;;;;;;3.87;nan;99586.94;4987137;28;20576;-76
2022/04/18 04:30:25;;;;;;;2.83;1.90;;;;;;;3.97;nan;99590.06;5002366;28;20542;-75
2022/04/18 04:32:58;;;;;;;3.95;2.90;;;;;;;4.03;nan;99600.22;4990190;28;20573;-76
2022/04/18 04:35:23;;;;;;;2.50;2.07;;;;;;;4.03;nan;99600.22;5009480;28;20325;-76
2022/04/18 04:38:02;;;;;;;2.60;2.40;;;;;;;4.05;nan;99587.16;4998456;28;20199;-74
2022/04/18 04:40:41;;;;;;;3.10;1.90;;;;;;;4.07;nan;99595.75;4991741;28;20211;-76
2022/04/18 04:43:09;;;;;;;5.70;2.30;;;;;;;4.11;nan;99590.41;5006339;28;20213;-75
2022/04/18 04:45:38;;;;;;;3.08;2.70;;;;;;;4.11;nan;99595.59;4988230;28;20805;-75
2022/04/18 04:48:17;;;;;;;3.67;2.80;;;;;;;4.12;nan;99593.84;5006267;28;20524;-75
2022/04/18 04:50:49;;;;;;;3.67;2.85;;;;;;;4.06;nan;99592.31;5008638;28;20210;-75
2022/04/18 04:53:15;;;;;;;3.60;2.30;;;;;;;4.09;nan;99600.00;4989852;28;20207;-74
2022/04/18 04:55:41;;;;;;;3.00;2.60;;;;;;;4.09;nan;99594.81;4991829;28;20923;-76
2022/04/18 04:58:09;;;;;;;2.63;2.30;;;;;;;4.07;nan;99596.59;5004997;28;20503;-73
2022/04/18 05:00:56;;;;;;;4.13;2.95;;;;;;;4.12;nan;99592.09;4994946;28;20495;-74
2022/04/18 05:03:37;;;;;;;2.25;2.03;;;;;;;4.20;nan;99592.63;4998355;28;20202;-76
2022/04/18 05:06:03;;;;;;;3.35;2.85;;;;;;;4.57;nan;99595.59;5006614;28;20222;-74
2022/04/18 05:08:34;;;;;;;4.30;2.22;;;;;;;5.24;nan;99586.81;4991496;28;20235;-74
2022/04/18 05:11:01;;;;;;;2.53;2.17;;;;;;;5.89;nan;99583.09;5006342;28;20195;-74
2022/04/18 05:13:53;;;;;;;4.45;2.40;;;;;;;6.62;nan;99575.41;5004446;28;20221;-76
2022/04/18 05:16:37;;;;;;;2.33;1.80;;;;;;;7.25;nan;99575.78;5004663;28;20221;-75
2022/04/18 05:19:05;;;;;;;3.30;1.90;;;;;;;7.83;nan;99571.94;5007876;28;20209;-74
2022/04/18 05:21:31;;;;;;;3.78;2.40;;;;;;;8.37;nan;99576.84;4999035;28;20206;-75
2022/04/18 05:24:03;;;;;;;2.92;2.13;;;;;;;8.91;nan;99569.50;5008132;28;20203;-74
2022/04/18 05:26:29;;;;;;;2.63;2.22;;;;;;;9.39;nan;99564.94;4988673;28;20221;-74
2022/04/18 05:28:55;;;;;;;4.33;2.17;;;;;;;9.71;nan;99570.88;4990383;28;20227;-76
2022/04/18 05:31:22;;;;;;;4.78;3.10;;;;;;;9.96;nan;99562.38;5005465;28;20461;-75
2022/04/18 05:33:49;;;;;;;3.08;2.50;;;;;;;10.27;nan;99555.22;4992591;28;20198;-74
2022/04/18 05:36:29;;;;;;;2.80;2.60;;;;;;;10.53;nan;99560.56;5000779;28;20225;-75
2022/04/18 05:38:55;;;;;;;2.40;2.20;;;;;;;10.56;nan;99565.66;4988016;28;20218;-74
2022/04/18 05:41:29;;;;;;;3.15;2.85;;;;;;;9.94;nan;99569.47;5006927;28;20707;-75
2022/04/18 05:43:55;;;;;;;2.53;2.33;;;;;;;8.90;nan;99585.31;4989636;28;20199;-77
2022/04/18 05:46:26;;;;;;;4.13;2.70;;;;;;;8.25;nan;99588.00;4994257;28;20250;-75
2022/04/18 05:48:54;;;;;;;5.70;2.80;;;;;;;7.72;nan;99595.16;5008951;28;20587;-76
2022/04/18 05:51:20;;;;;;;2.78;2.58;;;;;;;7.39;nan;99595.13;4991340;28;20206;-77
2022/04/18 05:53:46;;;;;;;3.30;2.20;;;;;;;7.13;nan;99602.53;5010368;28;20199;-77
2022/04/18 05:56:11;;;;;;;4.20;2.27;;;;;;;7.02;nan;99603.06;5011488;28;20721;-76
2022/04/18 05:58:58;;;;;;;4.03;2.65;;;;;;;6.94;nan;99594.75;5003598;28;20237;-76
2022/04/18 06:01:41;;;;;;;3.00;2.67;;;;;;;6.95;nan;99603.41;5003292;28;20501;-74
2022/04/18 06:04:18;;;;;;;7.80;3.97;;;;;;;7.02;nan;99604.78;4983335;28;20245;-76
2022/04/18 06:06:50;;;;;;;3.95;3.28;;;;;;;7.29;nan;99600.84;4987111;28;20591;-76
2022/04/18 06:09:17;;;;;;;3.65;3.25;;;;;;;8.00;nan;99588.50;5005255;28;20243;-72
2022/04/18 06:11:44;;;;;;;5.10;2.97;;;;;;;8.89;nan;99584.47;4990499;28;20226;-76
2022/04/18 06:14:13;;;;;;;3.70;2.30;;;;;;;9.95;nan;99580.81;4985800;28;20213;-76
2022/04/18 06:16:44;;;;;;;4.40;2.80;;;;;;;10.95;nan;99579.78;4996419;28;20594;-76
2022/04/18 06:19:11;;;;;;;3.90;3.35;;;;;;;11.79;nan;99581.97;5000469;28;20269;-73
2022/04/18 06:21:36;;;;;;;3.17;2.87;;;;;;;12.70;nan;99578.22;4995818;28;20194;-76
2022/04/18 06:24:03;;;;;;;2.85;2.40;;;;;;;13.46;nan;99583.09;4987894;28;20203;-72
2022/04/18 06:26:55;;;;;;;2.63;2.22;;;;;;;14.20;nan;99579.19;5004309;28;20610;-76
2022/04/18 06:29:21;;;;;;;3.83;3.53;;;;;;;14.68;nan;99568.31;5009004;28;20222;-75
2022/04/18 06:31:53;;;;;;;4.50;3.30;;;;;;;15.00;nan;99573.63;5010697;28;20473;-75
2022/04/18 06:34:20;;;;;;;4.55;3.13;;;;;;;15.37;nan;99565.28;5004547;28;20450;-77
2022/04/18 06:36:46;;;;;;;2.80;2.38;;;;;;;15.55;nan;99562.84;5010670;28;20234;-76
2022/04/18 06:39:21;;;;;;;4.40;2.30;;;;;;;15.74;nan;99572.75;5013656;28;20337;-76
2022/04/18 06:41:50;;;;;;;4.20;2.27;;;;;;;15.78;nan;99574.19;5011647;28;20231;-76
2022/04/18 06:44:19;;;;;;;2.50;2.07;;;;;;;15.53;nan;99565.66;5003690;28;20479;-74
2022/04/18 06:46:53;;;;;;;6.20;2.50;;;;;;;15.36;nan;99566.22;4996828;28;20484;-73
2022/04/18 06:49:50;;;;;;;2.57;2.37;;;;;;;14.49;nan;99568.94;4995185;28;20906;-76
2022/04/18 06:52:46;;;;;;;2.40;2.20;;;;;;;13.58;nan;99572.56;5013794;28;20546;-73
2022/04/18 06:56:58;;;;;;;2.60;2.40;;;;;;;12.87;nan;99572.56;5014404;28;22056;-76
2022/04/18 06:58:19;;;;;;;2.30;2.10;;;;;;;12.33;nan;99594.88;5001817;28;20240;-76
2022/04/18 07:00:44;;;;;;;2.10;1.90;;;;;;;11.84;nan;99592.19;5015668;28;20514;-74
2022/04/18 07:03:13;;;;;;;3.78;2.97;;;;;;;11.34;nan;99588.56;5010565;28;20206;-76
2022/04/18 07:05:41;;;;;;;3.10;2.80;;;;;;;;;;5001022;28;20283;-75
2022/04/18 07:08:07;;;;;;;3.13;2.85;;;;;;;10.78;nan;99594.84;4997649;28;20227;-75
2022/04/18 07:10:33;;;;;;;3.90;3.55;;;;;;;10.60;nan;99596.03;4993497;28;20314;-76
2022/04/18 07:12:58;;;;;;;3.90;3.50;;;;;;;10.49;nan;99599.34;4994680;28;20277;-73
2022/04/18 07:15:25;;;;;;;3.15;2.70;;;;;;;10.44;nan;99604.03;5001300;28;20214;-76
2022/04/18 07:17:52;;;;;;;2.55;2.35;;;;;;;10.75;nan;99597.69;5004298;28;20191;-76
2022/04/18 07:20:18;;;;;;;3.00;2.80;;;;;;;11.47;nan;99597.31;5002041;28;20264;-76
2022/04/18 07:22:43;;;;;;;2.90;2.60;;;;;;;12.26;nan;99596.28;5006066;28;20211;-76
2022/04/18 07:25:11;;;;;;;2.83;2.20;;;;;;;13.06;nan;99591.31;4990629;28;20191;-74
2022/04/18 07:27:39;;;;;;;4.40;3.20;;;;;;;13.68;nan;99590.22;5005574;28;20223;-76
2022/04/18 07:30:06;;;;;;;3.13;2.50;;;;;;;14.19;nan;99583.63;5006933;28;20218;-76
2022/04/18 07:32:42;;;;;;;4.75;2.60;;;;;;;14.69;nan;99583.22;4998912;28;20908;-75
2022/04/18 07:35:12;;;;;;;4.07;3.17;;;;;;;15.39;nan;99589.78;5008242;28;20277;-76
2022/04/18 07:40:36;;;;;;;3.40;3.10;;;;;;;16.41;nan;99588.06;5015372;28;20216;-76
2022/04/18 07:43:06;;;;;;;2.95;2.65;;;;;;;16.38;nan;99583.03;5000004;28;20293;-74
2022/04/18 07:45:31;;;;;;;3.00;2.70;;;;;;;16.13;nan;99593.16;5017624;28;20249;-76
2022/04/18 07:47:57;;;;;;;2.43;2.27;;;;;;;16.44;nan;99593.09;5014441;28;20233;-76
2022/04/18 07:51:31;;;;;;;2.77;2.57;;;;;;;16.80;nan;99578.41;4997904;28;20483;-76
2022/04/18 07:53:10;;;;;;;3.60;3.30;;;;;;;17.32;nan;99580.78;5012533;28;20521;-76
2022/04/18 07:58:37;;;;;;;3.30;2.90;;;;;;;17.92;nan;99581.38;1256531;26;20248;-77
2022/04/18 08:01:08;;;;;;;5.30;3.00;;;;;;;18.16;nan;99568.56;4932100;29;20594;-76
2022/04/18 08:03:37;;;;;;;4.10;3.40;;;;;;;18.45;nan;99561.25;4932244;29;20605;-76
2022/04/18 08:06:05;;;;;;;3.33;3.03;;;;;;;18.12;nan;99563.53;4948711;28;20475;-76
2022/04/18 08:08:40;;;;;;;4.60;3.47;;;;;;;18.00;nan;99566.53;4944837;28;20531;-76
2022/04/18 08:11:11;;;;;;;4.00;3.53;;;;;;;18.15;nan;99557.09;4964293;28;20456;-77
2022/04/18 08:13:44;;;;;;;4.87;3.53;;;;;;;18.02;nan;99557.44;4945896;29;20467;-77
2022/04/18 08:16:30;;;;;;;4.30;3.13;;;;;;;18.24;nan;99553.53;4947231;28;20922;-76
2022/04/18 08:19:01;;;;;;;3.20;2.97;;;;;;;18.45;nan;99549.78;4960882;28;20551;-77
2022/04/18 08:21:27;;;;;;;4.83;3.30;;;;;;;18.58;nan;99553.75;4946885;29;20559;-77
2022/04/18 08:23:53;;;;;;;3.80;3.30;;;;;;;18.91;nan;99558.59;4946645;28;20523;-77
2022/04/18 08:26:31;;;;;;;3.40;3.10;;;;;;;18.87;nan;99554.56;4945859;28;20464;-77
2022/04/18 08:29:04;;;;;;;3.07;2.87;;;;;;;18.92;nan;99553.09;4945015;28;20475;-77
2022/04/18 08:31:33;;;;;;;3.13;2.83;;;;;;;19.13;nan;99551.97;4961555;28;20574;-77
2022/04/18 08:34:03;;;;;;;4.17;3.77;;;;;;;19.30;nan;99560.91;4946117;28;20464;-77
2022/04/18 08:36:29;;;;;;;4.73;3.00;;;;;;;19.36;nan;99552.28;4961498;28;20476;-76
2022/04/18 08:38:55;;;;;;;4.07;2.90;;;;;;;19.00;nan;99550.53;4946611;28;20452;-77
2022/04/18 08:41:58;;;;;;;2.37;2.17;;;;;;;18.94;nan;99553.81;4942424;28;20461;-77
2022/04/18 08:44:30;;;;;;;3.63;2.50;;;;;;;18.88;nan;99546.44;4942406;28;20515;-76
2022/04/18 08:46:57;;;;;;;2.53;2.33;;;;;;;18.71;nan;99545.41;4961915;28;20487;-76
2022/04/18 08:55:23;;;;;;;4.47;2.70;;;;;;;18.21;nan;99548.53;4941978;28;20468;-76
2022/04/18 08:57:50;;;;;;;2.50;2.30;;;;;;;17.92;nan;99544.16;4960318;28;20208;-76
2022/04/18 09:00:16;;;;;;;3.07;2.10;;;;;;;17.65;nan;99541.44;4943765;28;20488;-76
2022/04/18 09:02:45;;;;;;;2.72;2.47;;;;;;;17.73;nan;99544.22;4959098;28;20518;-76
2022/04/18 09:05:21;;;;;;;3.40;3.10;;;;;;;17.76;nan;99548.41;4958052;28;20214;-76
2022/04/18 09:08:01;;;;;;;2.40;2.30;;;;;;;17.43;nan;99548.75;4960118;28;20484;-77
2022/04/18 09:10:32;;;;;;;2.70;2.50;;;;;;;17.36;nan;99542.38;4942304;28;20562;-76
2022/04/18 09:13:04;;;;;;;3.07;2.57;;;;;;;17.20;nan;99545.59;4945053;28;20564;-77
2022/04/18 09:16:04;;;;;;;2.73;2.40;;;;;;;17.13;nan;99543.66;4947054;28;20689;-76
2022/04/18 09:18:31;;;;;;;3.10;2.40;;;;;;;17.00;nan;99536.81;4945937;28;20459;-76
2022/04/18 09:21:04;;;;;;;3.43;3.13;;;;;;;16.99;nan;99536.97;4960207;28;20540;-76
2022/04/18 09:23:35;;;;;;;3.80;3.07;;;;;;;16.94;nan;99528.59;4945439;28;20464;-76
2022/04/18 09:26:20;;;;;;;2.87;2.17;;;;;;;17.01;nan;99532.31;4948280;28;20503;-76
2022/04/18 09:28:49;;;;;;;2.70;2.33;;;;;;;17.16;nan;99538.06;4943916;28;21046;-77
2022/04/18 09:31:24;;;;;;;2.97;2.70;;;;;;;16.99;nan;99524.53;4944666;28;20467;-76
2022/04/18 09:33:54;;;;;;;3.20;1.87;;;;;;;16.94;nan;99521.44;4942934;28;20660;-75
2022/04/18 09:36:23;;;;;;;2.60;2.33;;;;;;;16.92;nan;99522.56;4962531;28;20480;-76
2022/04/18 09:38:54;;;;;;;2.13;1.93;;;;;;;17.21;nan;99520.72;4958378;28;20456;-76
2022/04/18 09:41:29;;;;;;;2.13;1.93;;;;;;;17.43;nan;99514.25;4946539;28;20503;-76
2022/04/18 09:44:02;;;;;;;2.10;1.90;;;;;;;17.60;nan;99514.47;4958322;28;20460;-76
2022/04/18 09:46:33;;;;;;;2.10;1.90;;;;;;;17.54;nan;99515.91;4940928;28;20547;-76
2022/04/18 09:49:09;;;;;;;3.07;2.57;;;;;;;17.63;nan;99509.72;4943608;28;20551;-76
2022/04/18 09:51:38;;;;;;;2.50;2.23;;;;;;;17.55;nan;99508.75;4945794;28;20514;-77
2022/04/18 09:54:11;;;;;;;2.90;2.70;;;;;;;17.57;nan;99504.97;4942799;28;20514;-75
2022/04/18 09:56:47;;;;;;;3.07;2.10;;;;;;;17.60;nan;99502.03;4942598;28;20487;-75
2022/04/18 09:59:14;;;;;;;2.17;1.97;;;;;;;17.56;nan;99494.53;4951229;28;20279;-75
2022/04/18 10:01:40;;;;;;;2.40;2.10;;;;;;;17.62;nan;99493.94;4961752;28;20548;-76
2022/04/18 10:04:08;;;;;;;3.70;2.40;;;;;;;17.74;nan;99497.22;4962787;28;20209;-76
2022/04/18 10:06:34;;;;;;;2.50;2.30;;;;;;;17.98;nan;99494.06;4964574;28;20492;-76
2022/04/18 10:09:00;;;;;;;2.87;2.10;;;;;;;18.10;nan;99490.25;4964287;28;20499;-76
2022/04/18 10:11:28;;;;;;;3.10;2.23;;;;;;;18.28;nan;99488.47;4961324;28;20452;-76
2022/04/18 10:13:54;;;;;;;6.70;2.17;;;;;;;18.31;nan;99487.31;4963130;28;20555;-77
2022/04/18 10:16:21;;;;;;;2.07;1.97;;;;;;;18.33;nan;99485.31;4962455;28;20617;-76
2022/04/18 10:18:51;;;;;;;2.57;2.37;;;;;;;18.28;nan;99479.63;4964525;28;20972;-76
2022/04/18 10:21:36;;;;;;;3.00;2.37;;;;;;;18.13;nan;99479.31;4962051;28;21059;-76
2022/04/18 10:24:16;;;;;;;2.43;1.90;;;;;;;18.20;nan;99480.41;4959406;28;20714;-76
2022/04/18 10:27:00;;;;;;;4.87;2.60;;;;;;;18.33;nan;99467.56;4962440;28;20975;-76
2022/04/18 10:29:33;;;;;;;3.03;2.33;;;;;;;18.33;nan;99469.38;4964295;28;20506;-76
2022/04/18 10:32:03;;;;;;;2.80;2.60;;;;;;;18.43;nan;99471.97;4962758;28;20465;-76
2022/04/18 10:34:31;;;;;;;2.43;2.00;;;;;;;18.48;nan;99465.22;4962162;28;20491;-77
2022/04/18 10:37:03;;;;;;;3.40;2.00;;;;;;;18.62;nan;99460.34;4964402;28;20495;-77
2022/04/18 10:39:38;;;;;;;4.47;2.57;;;;;;;18.91;nan;99457.47;4961447;28;21017;-76
2022/04/18 10:42:36;;;;;;;2.73;2.00;;;;;;;18.79;nan;99460.38;4965259;28;20550;-76
2022/04/18 10:45:09;;;;;;;2.57;1.80;;;;;;;18.76;nan;99455.34;4962692;28;20542;-77
2022/04/18 10:48:00;;;;;;;2.10;1.60;;;;;;;18.75;nan;99445.69;4963740;28;21060;-76
2022/04/18 10:50:32;;;;;;;3.10;2.30;;;;;;;18.76;nan;99452.69;4963999;28;20448;-76
2022/04/18 10:53:10;;;;;;;2.40;2.03;;;;;;;18.95;nan;99448.16;4960124;28;20467;-76
2022/04/18 10:55:59;;;;;;;2.20;1.90;;;;;;;19.02;nan;99442.06;4961483;28;20504;-77
2022/04/18 10:58:31;;;;;;;2.10;1.90;;;;;;;19.08;nan;99435.28;4963265;28;20567;-76
2022/04/18 11:01:02;;;;;;;2.13;1.93;;;;;;;19.04;nan;99433.94;4963550;28;20448;-76
2022/04/18 11:03:49;;;;;;;2.03;1.83;;;;;;;18.92;nan;99435.16;4964658;28;20483;-77
2022/04/18 11:06:18;;;;;;;2.03;1.90;;;;;;;18.73;nan;99430.84;4964432;28;20490;-77
2022/04/18 11:09:08;;;;;;;2.40;1.90;;;;;;;18.76;nan;99425.22;4981265;28;20829;-77
2022/04/18 11:11:45;;;;;;;1.47;1.33;;;;;;;18.63;nan;99417.63;4987572;28;20492;-77
2022/04/18 11:14:17;;;;;;;2.83;2.13;;;;;;;18.44;nan;99415.13;4986529;28;20555;-77
2022/04/18 11:16:42;;;;;;;3.23;1.60;;;;;;;18.44;nan;99407.97;4988637;28;21201;-77
2022/04/18 11:19:10;;;;;;;2.40;1.87;;;;;;;18.55;nan;99406.91;4985886;28;20523;-76
2022/04/18 11:21:57;;;;;;;2.10;1.90;;;;;;;18.60;nan;99409.94;4989479;28;20204;-76
2022/04/18 11:24:36;;;;;;;2.30;2.10;;;;;;;18.67;nan;99405.69;4983988;28;20982;-77
2022/04/18 11:27:06;;;;;;;2.60;1.50;;;;;;;18.75;nan;99403.13;4968464;28;20565;-76
2022/04/18 11:29:32;;;;;;;1.90;1.80;;;;;;;18.77;nan;99403.81;4985603;28;20576;-76
2022/04/18 11:31:58;;;;;;;1.60;1.50;;;;;;;18.81;nan;99406.16;4987799;28;20532;-77
2022/04/18 11:34:29;;;;;;;2.87;2.03;;;;;;;18.78;nan;99396.66;4987468;28;20426;-77
2022/04/18 11:36:55;;;;;;;2.73;2.37;;;;;;;18.69;nan;99390.41;4970306;28;20224;-76
2022/04/18 11:39:20;;;;;;;3.60;2.10;;;;;;;18.55;nan;99385.63;4984733;28;20988;-76
2022/04/18 11:41:46;;;;;;;2.63;1.93;;;;;;;18.54;nan;99384.78;4985662;28;20472;-76
2022/04/18 11:44:12;;;;;;;3.10;2.10;;;;;;;18.53;nan;99384.97;4987192;28;20217;-77
2022/04/18 11:46:38;;;;;;;2.10;1.93;;;;;;;18.51;nan;99377.13;4988504;28;20482;-75
2022/04/18 11:49:07;;;;;;;1.90;1.80;;;;;;;18.49;nan;99383.59;4988769;28;21063;-77
2022/04/18 11:51:42;;;;;;;2.13;1.90;;;;;;;18.44;nan;99377.91;4988188;28;20552;-76
2022/04/18 11:54:08;;;;;;;2.00;1.80;;;;;;;18.48;nan;99389.91;4984900;28;20458;-77
2022/04/18 11:56:33;;;;;;;2.37;2.03;;;;;;;18.52;nan;99378.81;4986020;28;20491;-77
2022/04/18 11:59:04;;;;;;;2.23;1.87;;;;;;;18.52;nan;99376.16;4988602;28;20232;-76
2022/04/18 12:07:00;;;;;;;2.57;2.00;;;;;;;18.26;nan;99354.81;4986640;28;20996;-76
2022/04/18 12:09:26;;;;;;;2.23;1.70;;;;;;;18.35;nan;99363.69;4988111;28;20524;-76
2022/04/18 12:11:52;;;;;;;1.80;1.60;;;;;;;18.47;nan;99361.63;5004022;28;20633;-77
2022/04/18 12:14:18;;;;;;;4.30;2.10;;;;;;;18.52;nan;99359.34;5005576;28;20466;-75
2022/04/18 12:16:44;;;;;;;2.37;2.17;;;;;;;18.49;nan;99349.84;4992056;28;20532;-76
2022/04/18 12:19:15;;;;;;;2.63;2.03;;;;;;;18.54;nan;99341.41;5003984;28;20201;-75
2022/04/18 12:21:42;;;;;;;2.13;2.00;;;;;;;18.65;nan;99349.13;4984640;28;20562;-75
2022/04/18 12:24:10;;;;;;;2.23;1.80;;;;;;;18.71;nan;99340.53;4983543;28;20509;-74
2022/04/18 12:26:38;;;;;;;3.27;2.27;;;;;;;18.77;nan;99337.28;4980994;28;20537;-74
2022/04/18 12:29:11;;;;;;;3.83;2.20;;;;;;;18.76;nan;99338.25;4981415;28;21049;-75
2022/04/18 12:31:41;;;;;;;2.60;2.40;;;;;;;18.78;nan;99330.97;4982032;28;20479;-76
2022/04/18 12:34:15;;;;;;;3.03;2.13;;;;;;;18.90;nan;99336.00;4981008;28;20455;-74
2022/04/18 12:36:40;;;;;;;3.83;2.60;;;;;;;18.96;nan;99327.41;4981669;28;20484;-75